createdAt,value
2022-09-11T00:01:22.615Z,28.42
2022-09-11T00:03:49.292Z,27.15
2022-09-11T00:06:28.802Z,27.75
2022-09-11T00:09:00.691Z,31.58
2022-09-11T00:11:30.091Z,23.63
2022-09-11T00:13:59.448Z,28.73
2022-09-11T00:16:33.865Z,28.92
2022-09-11T00:19:06.433Z,25.40
2022-09-11T00:21:37.809Z,29.33
2022-09-11T00:24:04.583Z,27.88
2022-09-11T00:26:33.387Z,27.08
2022-09-11T00:29:02.129Z,31.83
2022-09-11T00:31:30.347Z,30.42
2022-09-11T00:33:57.405Z,27.73
2022-09-11T00:36:28.997Z,27.90
2022-09-11T00:38:58.873Z,31.90
2022-09-11T00:41:33.318Z,27.65
2022-09-11T00:44:16.927Z,29.88
2022-09-11T00:46:48.770Z,34.33
2022-09-11T00:49:39.288Z,29.88
2022-09-11T00:52:11.478Z,33.35
2022-09-11T00:54:51.451Z,28.50
2022-09-11T00:57:23.998Z,30.23
2022-09-11T00:59:55.919Z,30.48
2022-09-11T01:02:27.514Z,31.42
2022-09-11T01:04:55.495Z,34.13
2022-09-11T01:07:24.149Z,32.17
2022-09-11T01:09:51.221Z,35.05
2022-09-11T01:12:26.726Z,31.58
2022-09-11T01:15:25.529Z,31.83
2022-09-11T01:18:07.183Z,32.55
2022-09-11T01:20:56.894Z,34.92
2022-09-11T01:24:09.070Z,33.90
2022-09-11T01:27:03.393Z,32.70
2022-09-11T01:29:35.510Z,35.53
2022-09-11T01:32:18.882Z,34.17
2022-09-11T01:35:00.216Z,33.75
2022-09-11T01:37:44.404Z,33.90
2022-09-11T01:40:25.007Z,33.60
2022-09-11T01:42:55.118Z,34.03
2022-09-11T01:45:25.608Z,36.38
2022-09-11T01:47:53.403Z,35.47
2022-09-11T01:50:21.438Z,33.40
2022-09-11T01:52:50.603Z,33.58
2022-09-11T01:55:21.466Z,31.13
2022-09-11T01:57:48.001Z,34.83
2022-09-11T02:00:14.817Z,34.85
2022-09-11T02:02:52.518Z,31.92
2022-09-11T02:05:37.321Z,30.73
2022-09-11T02:08:17.191Z,32.03
2022-09-11T02:10:51.943Z,33.17
2022-09-11T02:13:30.333Z,35.88
2022-09-11T02:16:14.664Z,34.92
2022-09-11T02:18:54.510Z,29.98
2022-09-11T02:21:24.334Z,33.17
2022-09-11T02:23:51.078Z,31.63
2022-09-11T02:26:21.789Z,30.77
2022-09-11T02:28:48.334Z,29.88
2022-09-11T02:31:14.934Z,34.20
2022-09-11T02:33:41.995Z,32.75
2022-09-11T02:36:40.634Z,31.38
2022-09-11T02:39:23.186Z,33.70
2022-09-11T02:42:15.892Z,33.65
2022-09-11T02:45:04.616Z,30.98
2022-09-11T02:47:53.297Z,32.70
2022-09-11T02:50:45.956Z,31.52
2022-09-11T02:53:24.551Z,36.78
2022-09-11T02:56:23.574Z,33.78
2022-09-11T02:58:56.517Z,35.63
2022-09-11T03:01:23.709Z,35.83
2022-09-11T03:03:50.273Z,59.65
2022-09-11T03:06:25.388Z,35.08
2022-09-11T03:08:52.112Z,38.75
2022-09-11T03:11:20.136Z,43.78
2022-09-11T03:13:49.154Z,42.53
2022-09-11T03:16:15.662Z,30.92
2022-09-11T03:18:42.192Z,27.65
2022-09-11T03:21:11.431Z,27.55
2022-09-11T03:23:38.515Z,29.08
2022-09-11T03:26:05.463Z,32.53
2022-09-11T03:28:32.148Z,39.40
2022-09-11T03:30:59.243Z,25.58
2022-09-11T03:33:25.838Z,38.03
2022-09-11T03:35:52.339Z,45.38
2022-09-11T03:38:21.225Z,32.55
2022-09-11T03:40:47.873Z,69.60
2022-09-11T03:43:16.606Z,52.28
2022-09-11T03:45:44.768Z,56.70
2022-09-11T03:48:14.474Z,35.30
2022-09-11T03:50:41.234Z,47.10
2022-09-11T03:53:11.147Z,37.97
2022-09-11T03:55:38.316Z,41.28
2022-09-11T03:58:05.010Z,27.98
2022-09-11T04:00:31.562Z,36.33
2022-09-11T04:02:58.141Z,43.25
2022-09-11T04:05:25.398Z,40.40
2022-09-11T04:07:55.126Z,35.40
2022-09-11T04:10:24.083Z,44.53
2022-09-11T04:12:50.607Z,34.55
2022-09-11T04:15:20.193Z,30.42
2022-09-11T04:17:46.720Z,32.08
2022-09-11T04:20:13.573Z,34.10
2022-09-11T04:22:41.599Z,23.98
2022-09-11T04:25:08.582Z,27.38
2022-09-11T04:27:39.740Z,27.27
2022-09-11T04:30:06.964Z,36.70
2022-09-11T04:32:34.248Z,50.70
2022-09-11T04:35:01.894Z,142.13
2022-09-11T04:37:28.968Z,63.85
2022-09-11T04:39:55.543Z,86.07
2022-09-11T04:42:22.042Z,56.22
2022-09-11T04:44:51.599Z,55.88
2022-09-11T04:47:23.098Z,64.88
2022-09-11T04:49:49.703Z,93.97
2022-09-11T04:52:18.449Z,61.45
2022-09-11T04:54:46.160Z,79.85
2022-09-11T04:57:14.062Z,78.40
2022-09-11T04:59:42.742Z,88.60
2022-09-11T05:02:09.315Z,67.55
2022-09-11T05:04:36.007Z,57.80
2022-09-11T05:07:02.679Z,80.50
2022-09-11T05:09:31.713Z,60.95
2022-09-11T05:11:58.341Z,64.82
2022-09-11T05:14:25.406Z,80.95
2022-09-11T05:16:53.120Z,65.50
2022-09-11T05:19:22.625Z,57.47
2022-09-11T05:21:49.237Z,60.80
2022-09-11T05:24:15.756Z,40.67
2022-09-11T05:26:44.572Z,36.30
2022-09-11T05:29:14.044Z,37.75
2022-09-11T05:31:41.644Z,45.47
2022-09-11T05:34:08.694Z,40.00
2022-09-11T05:36:35.958Z,42.25
2022-09-11T05:39:04.002Z,32.92
2022-09-11T05:41:33.473Z,23.48
2022-09-11T05:44:02.298Z,20.55
2022-09-11T05:46:30.564Z,27.65
2022-09-11T05:48:59.697Z,18.08
2022-09-11T05:51:26.805Z,94.80
2022-09-11T05:53:57.657Z,91.78
2022-09-11T05:56:29.119Z,36.38
2022-09-11T05:58:58.261Z,23.98
2022-09-11T06:01:29.468Z,45.40
2022-09-11T06:04:03.960Z,81.00
2022-09-11T06:06:34.608Z,46.92
2022-09-11T06:09:07.146Z,36.40
2022-09-11T06:11:43.674Z,52.95
2022-09-11T06:14:14.122Z,36.38
2022-09-11T06:16:45.012Z,25.65
2022-09-11T06:19:11.745Z,23.35
2022-09-11T06:21:38.301Z,28.45
2022-09-11T06:24:05.610Z,42.20
2022-09-11T06:26:32.308Z,26.25
2022-09-11T06:28:58.981Z,36.15
2022-09-11T06:31:27.398Z,25.65
2022-09-11T06:33:55.923Z,47.03
2022-09-11T06:36:32.186Z,33.45
2022-09-11T06:39:01.333Z,30.40
2022-09-11T06:41:38.362Z,40.42
2022-09-11T06:44:10.665Z,37.15
2022-09-11T06:46:41.713Z,44.17
2022-09-11T06:49:09.460Z,25.90
2022-09-11T06:51:39.508Z,27.45
2022-09-11T06:54:06.646Z,19.77
2022-09-11T06:56:35.574Z,29.83
2022-09-11T06:59:04.588Z,29.02
2022-09-11T07:01:31.319Z,45.63
2022-09-11T07:03:57.856Z,23.33
2022-09-11T07:06:30.422Z,27.50
2022-09-11T07:09:02.518Z,38.10
2022-09-11T07:11:36.419Z,58.35
2022-09-11T07:14:05.904Z,82.70
2022-09-11T07:16:33.587Z,89.40
2022-09-11T07:19:03.630Z,68.32
2022-09-11T07:21:35.594Z,61.05
2022-09-11T07:24:02.545Z,36.58
2022-09-11T07:26:32.559Z,44.22
2022-09-11T07:28:59.821Z,63.40
2022-09-11T07:31:29.449Z,53.63
2022-09-11T07:33:57.108Z,29.92
2022-09-11T07:36:28.600Z,41.80
2022-09-11T07:38:57.596Z,32.38
2022-09-11T07:41:25.656Z,35.90
2022-09-11T07:43:57.049Z,76.72
2022-09-11T07:46:27.006Z,43.00
2022-09-11T07:48:55.141Z,61.60
2022-09-11T07:51:21.743Z,38.17
2022-09-11T07:53:51.899Z,49.58
2022-09-11T07:56:24.564Z,49.20
2022-09-11T07:58:52.669Z,52.80
2022-09-11T08:01:29.659Z,105.88
2022-09-11T08:04:01.667Z,32.83
2022-09-11T08:06:30.420Z,34.22
2022-09-11T08:09:07.062Z,27.92
2022-09-11T08:11:38.648Z,30.65
2022-09-11T08:14:05.438Z,33.25
2022-09-11T08:16:32.019Z,23.73
2022-09-11T08:19:00.861Z,22.60
2022-09-11T08:21:27.792Z,23.13
2022-09-11T08:23:54.615Z,22.45
2022-09-11T08:26:26.735Z,23.42
2022-09-11T08:28:57.555Z,25.42
2022-09-11T08:31:27.870Z,24.33
2022-09-11T08:33:55.858Z,21.80
2022-09-11T08:36:25.607Z,25.73
2022-09-11T08:38:55.150Z,23.02
2022-09-11T08:41:35.433Z,24.38
2022-09-11T08:44:11.955Z,22.70
2022-09-11T08:47:11.879Z,23.75
2022-09-11T08:49:43.033Z,24.85
2022-09-11T08:52:13.972Z,22.50
2022-09-11T08:54:42.399Z,23.45
2022-09-11T08:57:29.148Z,24.55
2022-09-11T09:00:18.222Z,23.63
2022-09-11T09:03:05.469Z,21.80
2022-09-11T09:05:40.375Z,23.42
2022-09-11T09:08:22.160Z,21.60
2022-09-11T09:10:50.960Z,18.25
2022-09-11T09:13:39.506Z,19.67
2022-09-11T09:16:11.563Z,20.05
2022-09-11T09:18:50.585Z,23.67
2022-09-11T09:21:42.525Z,19.92
2022-09-11T09:24:21.630Z,22.23
2022-09-11T09:26:56.316Z,18.98
2022-09-11T09:29:28.384Z,16.70
2022-09-11T09:32:06.536Z,19.23
2022-09-11T09:34:37.459Z,22.52
2022-09-11T09:37:07.769Z,24.00
2022-09-11T09:39:36.513Z,23.95
2022-09-11T09:42:30.887Z,19.13
2022-09-11T09:45:31.391Z,23.25
2022-09-11T09:47:58.435Z,20.55
2022-09-11T09:50:33.508Z,19.05
2022-09-11T09:53:11.485Z,23.40
2022-09-11T09:55:40.978Z,23.63
2022-09-11T09:58:07.641Z,22.80
2022-09-11T10:00:37.757Z,21.95
2022-09-11T10:03:22.183Z,21.20
2022-09-11T10:05:50.974Z,22.50
2022-09-11T10:08:36.162Z,21.20
2022-09-11T10:11:13.905Z,20.15
2022-09-11T10:13:43.001Z,17.05
2022-09-11T10:16:21.835Z,18.10
2022-09-11T10:18:48.471Z,20.85
2022-09-11T10:21:34.079Z,19.83
2022-09-11T10:24:03.489Z,17.70
2022-09-11T10:26:34.054Z,19.85
2022-09-11T10:29:30.331Z,19.30
2022-09-11T10:32:06.815Z,13.40
2022-09-11T10:34:38.587Z,14.60
2022-09-11T10:37:29.878Z,15.65
2022-09-11T10:40:06.201Z,16.10
2022-09-11T10:42:35.629Z,12.95
2022-09-11T10:45:17.535Z,15.80
2022-09-11T10:47:48.507Z,15.88
2022-09-11T10:50:18.119Z,20.38
2022-09-11T10:53:03.646Z,18.92
2022-09-11T10:55:40.667Z,15.35
2022-09-11T10:58:23.840Z,18.95
2022-09-11T11:00:53.336Z,18.08
2022-09-11T11:03:31.970Z,16.27
2022-09-11T11:06:04.601Z,12.00
2022-09-11T11:08:51.282Z,14.73
2022-09-11T11:11:47.925Z,15.90
2022-09-11T11:14:27.256Z,14.77
2022-09-11T11:17:11.962Z,12.00
2022-09-11T11:20:02.986Z,12.27
2022-09-11T11:22:47.933Z,10.75
2022-09-11T11:25:50.495Z,12.05
2022-09-11T11:28:40.427Z,10.68
2022-09-11T11:31:22.817Z,10.43
2022-09-11T11:34:30.168Z,12.90
2022-09-11T11:37:19.930Z,12.70
2022-09-11T11:39:46.447Z,9.80
2022-09-11T11:42:30.221Z,8.60
2022-09-11T11:45:06.812Z,11.73
2022-09-11T11:47:42.525Z,12.15
2022-09-11T11:50:49.002Z,12.40
2022-09-11T11:53:24.638Z,10.07
2022-09-11T11:56:00.868Z,9.90
2022-09-11T11:58:45.705Z,10.52
2022-09-11T12:01:22.175Z,6.40
2022-09-11T12:03:59.601Z,7.20
2022-09-11T12:06:27.084Z,7.55
2022-09-11T12:08:53.783Z,8.27
2022-09-11T12:11:30.494Z,6.18
2022-09-11T12:13:58.036Z,5.93
2022-09-11T12:16:44.297Z,6.82
2022-09-11T12:19:21.944Z,7.53
2022-09-11T12:21:54.925Z,8.30
2022-09-11T12:24:24.473Z,9.35
2022-09-11T12:27:49.771Z,7.10
2022-09-11T12:30:16.223Z,10.60
2022-09-11T12:32:49.734Z,9.73
2022-09-11T12:35:22.027Z,7.75
2022-09-11T12:37:56.349Z,8.43
2022-09-11T12:40:32.485Z,7.20
2022-09-11T12:43:27.903Z,9.38
2022-09-11T12:45:57.274Z,7.78
2022-09-11T12:48:34.392Z,8.60
2022-09-11T12:51:02.492Z,7.70
2022-09-11T12:53:32.846Z,12.52
2022-09-11T12:56:03.627Z,10.10
2022-09-11T12:58:43.822Z,7.05
2022-09-11T13:01:13.195Z,8.55
2022-09-11T13:03:56.702Z,7.32
2022-09-11T13:06:25.945Z,5.57
2022-09-11T13:08:59.757Z,6.35
2022-09-11T13:11:36.660Z,7.55
2022-09-11T13:14:03.936Z,7.28
2022-09-11T13:16:34.866Z,5.22
2022-09-11T13:19:11.385Z,5.32
2022-09-11T13:21:40.680Z,6.43
2022-09-11T13:24:28.228Z,6.18
2022-09-11T13:26:58.111Z,6.90
2022-09-11T13:29:27.374Z,4.65
2022-09-11T13:31:55.939Z,5.78
2022-09-11T13:34:24.971Z,5.22
2022-09-11T13:36:56.451Z,5.72
2022-09-11T13:39:26.755Z,6.70
2022-09-11T13:42:02.580Z,5.47
2022-09-11T13:44:43.033Z,5.50
2022-09-11T13:47:21.623Z,5.80
2022-09-11T13:49:51.119Z,5.25
2022-09-11T13:52:18.851Z,4.30
2022-09-11T13:55:10.480Z,3.78
2022-09-11T13:57:55.704Z,8.95
2022-09-11T14:00:37.609Z,9.15
2022-09-11T14:03:06.901Z,8.60
2022-09-11T14:05:35.063Z,6.75
2022-09-11T14:08:21.591Z,6.68
2022-09-11T14:10:54.999Z,8.10
2022-09-11T14:13:24.657Z,8.57
2022-09-11T14:16:01.520Z,6.40
2022-09-11T14:18:33.899Z,7.20
2022-09-11T14:21:04.851Z,5.93
2022-09-11T14:23:31.826Z,4.68
2022-09-11T14:26:10.632Z,7.30
2022-09-11T14:28:46.001Z,7.28
2022-09-11T14:31:14.558Z,7.93
2022-09-11T14:33:42.042Z,6.30
2022-09-11T14:36:20.130Z,6.55
2022-09-11T14:38:47.778Z,6.53
2022-09-11T14:41:14.441Z,8.30
2022-09-11T14:43:41.069Z,5.65
2022-09-11T14:46:07.618Z,8.90
2022-09-11T14:48:35.117Z,7.60
2022-09-11T14:51:13.376Z,8.85
2022-09-11T14:53:43.555Z,7.95
2022-09-11T14:56:12.744Z,7.75
2022-09-11T14:58:39.287Z,7.25
2022-09-11T15:01:05.978Z,7.40
2022-09-11T15:03:32.537Z,8.52
2022-09-11T15:05:59.503Z,6.55
2022-09-11T15:08:26.136Z,7.18
2022-09-11T15:10:53.736Z,9.57
2022-09-11T15:13:21.910Z,9.75
2022-09-11T15:15:48.612Z,9.68
2022-09-11T15:18:15.209Z,11.82
2022-09-11T15:20:41.879Z,8.98
2022-09-11T15:23:08.577Z,10.48
2022-09-11T15:25:35.101Z,10.00
2022-09-11T15:28:01.764Z,7.00
2022-09-11T15:30:28.492Z,8.82
2022-09-11T15:32:55.153Z,11.65
2022-09-11T15:35:23.850Z,7.07
2022-09-11T15:37:50.900Z,5.55
2022-09-11T15:40:18.013Z,6.45
2022-09-11T15:42:44.693Z,7.47
2022-09-11T15:45:13.010Z,12.18
2022-09-11T15:47:42.254Z,10.88
2022-09-11T15:50:09.319Z,6.55
2022-09-11T15:52:36.609Z,6.53
2022-09-11T15:55:35.951Z,5.63
2022-09-11T15:58:08.667Z,7.18
2022-09-11T16:00:40.021Z,8.55
2022-09-11T16:03:08.056Z,6.20
2022-09-11T16:05:41.652Z,7.15
2022-09-11T16:08:11.166Z,6.47
2022-09-11T16:10:38.681Z,5.97
2022-09-11T16:13:05.428Z,5.35
2022-09-11T16:15:32.547Z,6.07
2022-09-11T16:17:59.987Z,6.85
2022-09-11T16:20:26.815Z,8.05
2022-09-11T16:23:07.108Z,6.13
2022-09-11T16:25:39.485Z,5.75
2022-09-11T16:28:08.878Z,5.53
2022-09-11T16:30:44.495Z,6.55
2022-09-11T16:33:13.194Z,8.80
2022-09-11T16:35:40.155Z,7.13
2022-09-11T16:38:07.513Z,8.98
2022-09-11T16:40:37.861Z,7.22
2022-09-11T16:43:05.300Z,6.88
2022-09-11T16:45:36.022Z,6.20
2022-09-11T16:48:06.257Z,6.85
2022-09-11T16:50:32.979Z,9.45
2022-09-11T16:52:59.599Z,7.30
2022-09-11T16:55:28.611Z,5.63
2022-09-11T16:57:55.104Z,7.38
2022-09-11T17:00:21.820Z,6.93
2022-09-11T17:02:52.894Z,6.35
2022-09-11T17:05:19.476Z,6.10
2022-09-11T17:07:46.039Z,6.20
2022-09-11T17:10:14.434Z,4.70
2022-09-11T17:12:41.213Z,7.30
2022-09-11T17:15:15.278Z,7.78
2022-09-11T17:17:43.457Z,7.72
2022-09-11T17:20:11.795Z,8.98
2022-09-11T17:22:39.736Z,6.88
2022-09-11T17:25:09.034Z,7.28
2022-09-11T17:27:40.952Z,9.00
2022-09-11T17:30:08.110Z,6.70
2022-09-11T17:32:34.689Z,7.25
2022-09-11T17:35:01.238Z,13.20
2022-09-11T17:37:28.041Z,6.72
2022-09-11T17:39:55.742Z,6.82
2022-09-11T17:42:22.803Z,6.05
2022-09-11T17:44:49.379Z,5.78
2022-09-11T17:47:16.090Z,5.57
2022-09-11T17:49:43.061Z,4.40
2022-09-11T17:52:09.807Z,7.90
2022-09-11T17:54:36.696Z,5.75
2022-09-11T17:57:03.441Z,5.47
2022-09-11T17:59:32.268Z,7.55
2022-09-11T18:01:59.936Z,6.82
2022-09-11T18:04:26.942Z,8.10
2022-09-11T18:06:53.623Z,7.32
2022-09-11T18:09:23.236Z,8.45
2022-09-11T18:11:54.570Z,5.45
2022-09-11T18:14:21.140Z,8.55
2022-09-11T18:16:47.960Z,6.28
2022-09-11T18:19:16.589Z,7.88
2022-09-11T18:21:50.188Z,8.68
2022-09-11T18:24:20.867Z,6.13
2022-09-11T18:26:51.463Z,6.57
2022-09-11T18:29:20.023Z,8.32
2022-09-11T18:31:52.061Z,7.57
2022-09-11T18:34:29.182Z,8.43
2022-09-11T18:36:59.882Z,6.97
2022-09-11T18:39:27.493Z,5.47
2022-09-11T18:41:54.075Z,7.10
2022-09-11T18:44:24.617Z,5.70
2022-09-11T18:46:55.304Z,5.95
2022-09-11T18:49:23.370Z,6.32
2022-09-11T18:51:50.594Z,7.88
2022-09-11T18:54:21.399Z,5.63
2022-09-11T18:56:49.732Z,7.57
2022-09-11T18:59:16.786Z,11.90
2022-09-11T19:01:43.749Z,7.00
2022-09-11T19:04:12.195Z,7.05
2022-09-11T19:06:39.460Z,6.65
2022-09-11T19:09:10.202Z,7.05
2022-09-11T19:11:41.604Z,8.40
2022-09-11T19:14:12.124Z,8.60
2022-09-11T19:16:41.309Z,7.95
2022-09-11T19:19:10.910Z,6.53
2022-09-11T19:21:40.456Z,7.97
2022-09-11T19:24:09.220Z,10.00
2022-09-11T19:26:38.925Z,7.75
2022-09-11T19:29:07.008Z,11.90
2022-09-11T19:31:36.379Z,13.15
2022-09-11T19:34:03.171Z,11.23
2022-09-11T19:36:32.003Z,11.43
2022-09-11T19:39:01.535Z,13.77
2022-09-11T19:41:33.952Z,15.32
2022-09-11T19:44:05.457Z,11.50
2022-09-11T19:46:33.535Z,9.18
2022-09-11T19:49:11.182Z,9.05
2022-09-11T19:51:42.584Z,10.48
2022-09-11T19:54:14.453Z,11.82
2022-09-11T19:56:42.419Z,9.38
2022-09-11T19:59:12.609Z,9.68
2022-09-11T20:01:39.459Z,11.77
2022-09-11T20:04:06.287Z,10.88
2022-09-11T20:06:37.466Z,10.32
2022-09-11T20:09:29.979Z,11.30
2022-09-11T20:11:51.967Z,12.98
2022-09-11T20:14:18.476Z,11.27
2022-09-11T20:16:45.112Z,11.63
2022-09-11T20:19:11.706Z,11.48
2022-09-11T20:21:38.524Z,10.65
2022-09-11T20:24:06.424Z,10.23
2022-09-11T20:26:34.084Z,12.60
2022-09-11T20:29:07.106Z,13.05
2022-09-11T20:31:42.402Z,11.30
2022-09-11T20:34:11.406Z,13.95
2022-09-11T20:36:37.930Z,11.80
2022-09-11T20:39:04.624Z,13.23
2022-09-11T20:41:32.356Z,12.82
2022-09-11T20:44:02.383Z,11.90
2022-09-11T20:46:29.067Z,12.70
2022-09-11T20:48:55.923Z,12.13
2022-09-11T20:51:25.178Z,11.40
2022-09-11T20:53:51.764Z,14.15
2022-09-11T20:56:21.029Z,12.20
2022-09-11T20:58:48.013Z,12.90
2022-09-11T21:01:18.990Z,14.00
2022-09-11T21:03:50.527Z,13.23
2022-09-11T21:06:20.020Z,13.10
2022-09-11T21:08:59.166Z,15.00
2022-09-11T21:11:28.166Z,12.88
2022-09-11T21:13:54.860Z,12.23
2022-09-11T21:16:22.144Z,13.07
2022-09-11T21:18:54.514Z,13.55
2022-09-11T21:21:22.141Z,13.95
2022-09-11T21:23:49.340Z,12.70
2022-09-11T21:26:19.626Z,13.13
2022-09-11T21:28:46.213Z,15.20
2022-09-11T21:31:12.781Z,14.43
2022-09-11T21:33:39.597Z,14.13
2022-09-11T21:36:07.141Z,15.07
2022-09-11T21:38:34.036Z,14.70
2022-09-11T21:41:03.363Z,14.48
2022-09-11T21:43:29.977Z,11.35
2022-09-11T21:45:56.754Z,13.05
2022-09-11T21:48:24.291Z,16.73
2022-09-11T21:50:51.501Z,14.43
2022-09-11T21:53:18.955Z,18.98
2022-09-11T21:55:47.009Z,17.75
2022-09-11T21:58:17.948Z,15.75
2022-09-11T22:00:45.818Z,14.95
2022-09-11T22:03:13.065Z,14.23
2022-09-11T22:05:43.260Z,14.55
2022-09-11T22:08:11.999Z,17.50
2022-09-11T22:10:49.246Z,15.57
2022-09-11T22:13:17.364Z,14.40
2022-09-11T22:15:45.716Z,17.33
2022-09-11T22:18:21.574Z,18.63
2022-09-11T22:20:48.500Z,18.98
2022-09-11T22:23:22.873Z,20.67
2022-09-11T22:25:58.464Z,15.02
2022-09-11T22:28:25.462Z,15.77
2022-09-11T22:30:52.246Z,16.05
2022-09-11T22:33:20.971Z,16.98
2022-09-11T22:35:49.770Z,15.93
2022-09-11T22:38:16.626Z,16.13
2022-09-11T22:40:43.157Z,15.82
2022-09-11T22:43:12.071Z,15.43
2022-09-11T22:45:38.620Z,15.30
2022-09-11T22:48:05.214Z,15.85
2022-09-11T22:50:33.359Z,15.93
2022-09-11T22:52:59.867Z,16.30
2022-09-11T22:55:28.898Z,16.88
2022-09-11T22:57:55.606Z,15.65
2022-09-11T23:00:22.175Z,15.13
2022-09-11T23:02:48.736Z,17.92
2022-09-11T23:05:47.494Z,16.50
2022-09-11T23:08:14.072Z,17.23
2022-09-11T23:10:47.497Z,18.58
2022-09-11T23:13:14.695Z,16.65
2022-09-11T23:15:41.231Z,16.85
2022-09-11T23:18:07.748Z,20.48
2022-09-11T23:20:36.647Z,20.30
2022-09-11T23:23:04.249Z,16.85
2022-09-11T23:25:34.238Z,18.63
2022-09-11T23:28:00.829Z,16.40
2022-09-11T23:30:32.084Z,16.83
2022-09-11T23:32:58.575Z,16.13
2022-09-11T23:35:25.102Z,16.45
2022-09-11T23:37:51.677Z,16.02
2022-09-11T23:40:18.217Z,16.65
2022-09-11T23:42:44.745Z,18.20
2022-09-11T23:45:12.780Z,16.98
2022-09-11T23:47:42.031Z,18.15
2022-09-11T23:50:11.313Z,19.55
2022-09-11T23:52:40.104Z,17.13
2022-09-11T23:55:07.078Z,19.20
2022-09-11T23:57:34.020Z,16.80
